Time;durP1;ratioP1;P1;durP2;ratioP2;P2;SDS_P1;SDS_P2;PMS_P1;PMS_P2;Temp;Humidity;BMP_temperature;BMP_pressure;BME280_temperature;BME280_humidity;BME280_pressure;Samples;Min_cycle;Max_cycle;Signal;HPM_P1;HPM_P2
2021/07/02 00:00:47;;;;;;;0.20;0.20;;;;;;;18.99;58.37;98078.06;128785;1095;115723;-83
2021/07/02 00:03:13;;;;;;;0.10;0.10;;;;;;;18.95;58.40;98071.78;128737;1096;115726;-82
2021/07/02 00:05:40;;;;;;;0.20;0.20;;;;;;;18.92;58.18;98078.76;128732;1096;115737;-83
2021/07/02 00:08:06;;;;;;;0.20;0.20;;;;;;;18.87;58.41;98062.73;129534;1097;22542;-83
2021/07/02 00:10:32;;;;;;;0.20;0.20;;;;;;;18.85;58.86;98075.94;128723;1096;115493;-83
2021/07/02 00:12:59;;;;;;;0.20;0.20;;;;;;;18.84;59.38;98068.92;128735;1096;116470;-83
2021/07/02 00:15:25;;;;;;;0.20;0.20;;;;;;;18.87;59.84;98068.18;128719;1096;115394;-83
2021/07/02 00:17:51;;;;;;;0.20;0.20;;;;;;;18.87;59.93;98065.45;128693;1096;115712;-83
2021/07/02 00:20:17;;;;;;;0.20;0.20;;;;;;;18.87;59.49;98063.51;129531;1096;22545;-82
2021/07/02 00:22:43;;;;;;;0.20;0.20;;;;;;;18.84;58.83;98066.97;128761;1097;115458;-82
2021/07/02 00:25:10;;;;;;;0.20;0.20;;;;;;;18.80;59.11;98057.18;128724;1096;115542;-82
2021/07/02 00:27:36;;;;;;;0.20;0.20;;;;;;;18.73;59.09;98066.05;128784;1096;115904;-82
2021/07/02 00:30:04;;;;;;;0.20;0.20;;;;;;;18.69;58.76;98057.01;128758;1096;115616;-82
2021/07/02 00:32:30;;;;;;;0.20;0.20;;;;;;;18.65;58.49;98061.63;128744;1096;116469;-83
2021/07/02 00:34:56;;;;;;;0.20;0.20;;;;;;;18.62;58.59;98048.73;129611;1096;22564;-82
2021/07/02 00:37:22;;;;;;;0.20;0.20;;;;;;;18.61;58.87;98053.41;128709;1096;115906;-82
2021/07/02 00:39:48;;;;;;;0.20;0.20;;;;;;;18.60;58.88;98049.11;128718;1096;115632;-83
2021/07/02 00:42:14;;;;;;;0.20;0.20;;;;;;;18.55;58.54;98035.81;128705;1095;115412;-83
2021/07/02 00:44:45;;;;;;;0.28;0.20;;;;;;;18.48;59.23;98027.53;128703;1096;116085;-82
2021/07/02 00:47:12;;;;;;;;;;;;;;;18.42;59.88;98029.00;129562;1096;22561;-83
2021/07/02 00:49:39;;;;;;;0.20;0.20;;;;;;;18.33;58.87;98031.22;128857;1096;102689;-83
2021/07/02 00:52:07;;;;;;;0.20;0.20;;;;;;;18.28;59.14;98021.43;128690;1096;115623;-83
2021/07/02 00:54:34;;;;;;;0.20;0.20;;;;;;;18.18;59.06;98013.88;128781;1096;115496;-83
2021/07/02 00:57:02;;;;;;;0.10;0.10;;;;;;;18.12;59.27;98009.92;128715;1096;115668;-83
2021/07/02 00:59:30;;;;;;;0.10;0.10;;;;;;;18.06;59.65;98019.55;129128;1096;115299;-83
2021/07/02 01:01:56;;;;;;;0.20;0.20;;;;;;;18.03;60.15;98014.83;129528;1096;22560;-83
2021/07/02 01:04:23;;;;;;;0.13;0.13;;;;;;;18.07;60.90;98019.17;128719;1097;114689;-83
2021/07/02 01:06:51;;;;;;;0.20;0.20;;;;;;;18.13;60.78;98025.89;128702;1096;115277;-83
2021/07/02 01:09:22;;;;;;;0.20;0.20;;;;;;;18.19;60.58;98025.56;128705;1096;115704;-83
2021/07/02 01:11:48;;;;;;;0.20;0.20;;;;;;;18.22;59.62;98041.19;128689;1096;115932;-83
2021/07/02 01:14:14;;;;;;;0.10;0.10;;;;;;;18.22;59.85;98033.80;129559;1096;22569;-83
2021/07/02 01:16:41;;;;;;;0.10;0.10;;;;;;;18.20;59.26;98038.06;128792;1096;114904;-83
2021/07/02 01:19:07;;;;;;;0.20;0.20;;;;;;;18.20;59.65;98038.84;128709;1096;115275;-83
2021/07/02 01:21:34;;;;;;;0.20;0.20;;;;;;;18.21;59.13;98034.95;128706;1097;116272;-83
2021/07/02 01:24:01;;;;;;;0.20;0.20;;;;;;;18.14;59.33;98038.35;128686;1096;115289;-82
2021/07/02 01:26:29;;;;;;;0.20;0.20;;;;;;;18.11;59.19;98041.02;129558;1096;22555;-82
2021/07/02 01:28:55;;;;;;;0.20;0.20;;;;;;;18.08;59.44;98033.61;129526;1096;22611;-82
2021/07/02 01:31:21;;;;;;;0.20;0.20;;;;;;;17.99;59.88;98033.84;128751;1096;115412;-82
2021/07/02 01:33:47;;;;;;;0.20;0.20;;;;;;;17.94;59.95;98025.99;128726;1096;115546;-82
2021/07/02 01:36:19;;;;;;;0.15;0.15;;;;;;;17.90;60.05;98030.60;128736;1096;115604;-82
2021/07/02 01:38:46;;;;;;;0.10;0.10;;;;;;;17.86;61.12;98029.77;128789;1096;115694;-83
2021/07/02 01:41:12;;;;;;;0.10;0.10;;;;;;;17.83;60.47;98033.20;129540;1096;23425;-83
2021/07/02 01:43:38;;;;;;;0.20;0.20;;;;;;;17.79;60.57;98026.92;128793;1096;115629;-83
2021/07/02 01:46:05;;;;;;;0.10;0.10;;;;;;;17.78;60.98;98022.63;128715;1096;115287;-82
2021/07/02 01:48:31;;;;;;;0.20;0.20;;;;;;;17.74;61.41;98025.27;128701;1096;116781;-82
2021/07/02 01:50:57;;;;;;;0.10;0.10;;;;;;;17.76;62.31;98019.48;128706;1096;115467;-84
2021/07/02 01:53:23;;;;;;;0.20;0.20;;;;;;;17.77;61.73;98019.13;129593;1095;22711;-82
2021/07/02 01:55:49;;;;;;;0.10;0.10;;;;;;;17.81;61.85;98019.97;128745;1096;115227;-82
2021/07/02 01:58:16;;;;;;;0.10;0.10;;;;;;;17.84;61.23;98029.33;128678;1096;115402;-84
2021/07/02 02:00:42;;;;;;;0.20;0.20;;;;;;;17.82;61.56;98024.26;128731;1096;116105;-82
2021/07/02 02:03:08;;;;;;;0.13;0.13;;;;;;;17.81;61.53;98027.36;128692;1097;115656;-82
2021/07/02 02:05:34;;;;;;;0.10;0.10;;;;;;;17.80;61.49;98026.58;128715;1096;115716;-84
2021/07/02 02:08:01;;;;;;;0.10;0.10;;;;;;;17.79;61.37;98024.98;129524;1096;22579;-84
2021/07/02 02:10:27;;;;;;;0.20;0.20;;;;;;;17.76;61.53;98033.88;128713;1096;114971;-83
2021/07/02 02:12:53;;;;;;;0.20;0.20;;;;;;;17.69;61.57;98031.03;128692;1096;115879;-82
2021/07/02 02:15:19;;;;;;;0.20;0.20;;;;;;;17.64;61.66;98034.84;128693;1096;117135;-82
2021/07/02 02:17:45;;;;;;;0.10;0.10;;;;;;;17.63;61.94;98024.30;128748;1096;115627;-83
2021/07/02 02:20:12;;;;;;;0.10;0.10;;;;;;;17.64;61.84;98025.88;129599;1096;23030;-83
2021/07/02 02:22:39;;;;;;;0.20;0.20;;;;;;;17.62;62.22;98028.97;128781;1096;115638;-85
2021/07/02 02:25:07;;;;;;;0.20;0.20;;;;;;;17.58;62.10;98025.41;128753;1096;115179;-85
2021/07/02 02:27:34;;;;;;;0.10;0.10;;;;;;;17.57;62.39;98025.78;128701;1096;115319;-85
2021/07/02 02:30:00;;;;;;;0.30;0.30;;;;;;;17.57;63.31;98025.78;128715;1097;115730;-85
2021/07/02 02:32:26;;;;;;;0.20;0.20;;;;;;;17.60;63.02;98033.19;129526;1096;22521;-83
2021/07/02 02:34:52;;;;;;;0.20;0.20;;;;;;;17.63;62.51;98035.20;128710;1096;115398;-82
2021/07/02 02:37:19;;;;;;;0.20;0.20;;;;;;;17.64;62.78;98037.58;128764;1096;115806;-82
2021/07/02 02:39:45;;;;;;;0.10;0.10;;;;;;;17.64;62.30;98043.02;128703;1097;115582;-84
2021/07/02 02:42:11;;;;;;;0.20;0.20;;;;;;;17.67;62.15;98034.09;128680;1100;116051;-84
2021/07/02 02:44:37;;;;;;;0.20;0.20;;;;;;;17.66;62.40;98043.42;128697;1097;115223;-84
2021/07/02 02:47:04;;;;;;;0.20;0.20;;;;;;;17.63;62.37;98030.53;129566;1095;22548;-84
2021/07/02 02:49:30;;;;;;;0.20;0.20;;;;;;;17.62;61.88;98036.35;128683;1097;115265;-84
2021/07/02 02:51:57;;;;;;;0.20;0.20;;;;;;;17.57;62.28;98037.45;128699;1097;115688;-84
2021/07/02 02:54:23;;;;;;;0.10;0.10;;;;;;;17.56;62.51;98035.85;128672;1096;115102;-84
2021/07/02 02:57:04;;;;;;;0.20;0.20;;;;;;;17.55;62.03;98039.73;128751;1096;115339;-84
2021/07/02 02:59:33;;;;;;;0.20;0.20;;;;;;;17.53;63.03;98035.82;128709;1096;115894;-84
2021/07/02 03:02:00;;;;;;;0.15;0.15;;;;;;;17.53;62.52;98033.09;129536;1096;22543;-85
2021/07/02 03:04:26;;;;;;;0.10;0.10;;;;;;;17.52;62.84;98045.11;128734;1096;115298;-85
2021/07/02 03:06:52;;;;;;;0.10;0.10;;;;;;;17.49;63.18;98038.48;128716;1096;115423;-86
2021/07/02 03:09:18;;;;;;;0.13;0.13;;;;;;;17.52;63.75;98037.73;128719;1096;115041;-85
2021/07/02 03:11:46;;;;;;;0.20;0.20;;;;;;;17.50;63.37;98037.33;128735;1096;115598;-85
2021/07/02 03:14:12;;;;;;;0.20;0.20;;;;;;;17.55;62.81;98036.23;129526;1096;22575;-85
2021/07/02 03:16:39;;;;;;;0.10;0.10;;;;;;;17.57;63.30;98031.22;128740;1096;115889;-85
2021/07/02 03:19:05;;;;;;;0.20;0.20;;;;;;;17.57;64.51;98033.95;128714;1095;115617;-85
2021/07/02 03:21:31;;;;;;;0.20;0.20;;;;;;;17.58;63.53;98033.57;128694;1096;115841;-86
2021/07/02 03:23:57;;;;;;;0.10;0.10;;;;;;;17.60;62.78;98033.98;128740;1096;115636;-85
2021/07/02 03:26:23;;;;;;;0.10;0.10;;;;;;;17.59;62.74;98037.08;129539;1096;22582;-85
2021/07/02 03:28:49;;;;;;;0.20;0.20;;;;;;;17.58;62.65;98036.29;128687;1096;115256;-85
2021/07/02 03:31:15;;;;;;;0.13;0.13;;;;;;;17.59;62.80;98040.58;128760;1096;115735;-86
2021/07/02 03:33:42;;;;;;;0.10;0.10;;;;;;;17.56;63.25;98043.23;128639;1096;115847;-86
2021/07/02 03:36:08;;;;;;;0.20;0.20;;;;;;;17.54;63.10;98034.66;128711;1096;115727;-85
2021/07/02 03:38:33;;;;;;;0.20;0.20;;;;;;;17.52;63.94;98035.01;128724;1097;116614;-85
2021/07/02 03:40:59;;;;;;;0.20;0.20;;;;;;;17.52;63.72;98036.95;129538;1095;22622;-85
2021/07/02 03:43:25;;;;;;;0.20;0.20;;;;;;;17.56;63.89;98035.85;128720;1097;116002;-84
2021/07/02 03:45:52;;;;;;;0.10;0.10;;;;;;;17.56;63.56;98030.41;128691;1096;115828;-85
2021/07/02 03:48:18;;;;;;;0.20;0.20;;;;;;;17.55;63.30;98039.73;128687;1096;115605;-84
2021/07/02 03:50:44;;;;;;;0.10;0.10;;;;;;;17.57;63.51;98032.00;128688;1097;115431;-85
2021/07/02 03:53:10;;;;;;;0.20;0.20;;;;;;;17.57;63.04;98029.28;129588;1096;23430;-84
2021/07/02 03:55:36;;;;;;;0.23;0.23;;;;;;;17.60;62.72;98041.36;128700;1096;115400;-84
2021/07/02 03:58:03;;;;;;;0.15;0.15;;;;;;;17.57;63.33;98039.39;128688;1097;115287;-84
2021/07/02 04:00:30;;;;;;;0.10;0.10;;;;;;;17.53;63.23;98039.33;128722;1097;115506;-85
2021/07/02 04:02:56;;;;;;;0.10;0.10;;;;;;;17.49;63.53;98035.76;128705;1096;115542;-85
2021/07/02 04:05:22;;;;;;;0.20;0.20;;;;;;;17.49;63.42;98041.20;129564;1096;22518;-85
2021/07/02 04:07:48;;;;;;;0.20;0.20;;;;;;;17.51;63.37;98054.44;128717;1096;115158;-85
2021/07/02 04:10:15;;;;;;;0.20;0.20;;;;;;;17.54;64.03;98043.61;128643;1097;115497;-84
2021/07/02 04:12:41;;;;;;;0.10;0.10;;;;;;;17.61;64.17;98035.57;128687;1096;115632;-84
2021/07/02 04:15:08;;;;;;;0.20;0.20;;;;;;;17.67;64.29;98041.48;128719;1096;116340;-84
2021/07/02 04:17:35;;;;;;;0.20;0.20;;;;;;;17.72;64.24;98033.00;128687;1096;115939;-84
2021/07/02 04:20:03;;;;;;;0.30;0.30;;;;;;;17.80;63.45;98044.83;129539;1096;23390;-84
2021/07/02 04:22:29;;;;;;;0.20;0.20;;;;;;;17.85;63.57;98045.32;128741;1096;115328;-84
2021/07/02 04:24:55;;;;;;;0.10;0.10;;;;;;;17.87;63.02;98037.55;128662;1096;116055;-84
2021/07/02 04:27:21;;;;;;;0.20;0.20;;;;;;;17.90;63.07;98036.05;128700;1096;115211;-82
2021/07/02 04:29:47;;;;;;;;;;;;;;;17.91;63.08;98040.34;128684;1096;116178;-82
2021/07/02 04:32:13;;;;;;;0.20;0.20;;;;;;;17.91;62.54;98040.34;129522;1096;22591;-82
2021/07/02 04:34:39;;;;;;;0.13;0.13;;;;;;;17.83;63.56;98039.44;128671;1097;115373;-82
2021/07/02 04:37:05;;;;;;;0.20;0.20;;;;;;;17.80;63.03;98040.19;128736;1096;115796;-82
2021/07/02 04:39:31;;;;;;;0.10;0.10;;;;;;;17.78;63.01;98050.65;128756;1096;115483;-82
2021/07/02 04:41:57;;;;;;;0.20;0.20;;;;;;;17.78;63.64;98047.14;128669;1096;115878;-82
2021/07/02 04:44:24;;;;;;;0.20;0.20;;;;;;;17.80;63.86;98042.10;129562;1096;23292;-85
2021/07/02 04:46:50;;;;;;;0.20;0.20;;;;;;;17.83;64.68;98047.61;128739;1096;116612;-83
2021/07/02 04:49:16;;;;;;;0.10;0.10;;;;;;;17.84;63.90;98054.66;128693;1096;115814;-83
2021/07/02 04:51:42;;;;;;;0.10;0.10;;;;;;;17.81;63.50;98049.92;128754;1096;115709;-82
2021/07/02 04:54:08;;;;;;;0.10;0.10;;;;;;;17.81;63.71;98060.04;128701;1095;117833;-82
2021/07/02 04:56:34;;;;;;;0.20;0.20;;;;;;;17.85;63.93;98055.44;128705;1096;115582;-83
2021/07/02 04:59:01;;;;;;;0.20;0.20;;;;;;;17.89;63.75;98059.00;129556;1097;22641;-83
2021/07/02 05:01:28;;;;;;;0.20;0.20;;;;;;;17.91;62.80;98060.19;128716;1096;115535;-83
2021/07/02 05:03:54;;;;;;;0.20;0.20;;;;;;;17.94;62.75;98071.52;128724;1096;115750;-83
2021/07/02 05:06:20;;;;;;;0.18;0.18;;;;;;;17.96;62.77;98069.20;128719;1097;115500;-83
2021/07/02 05:08:47;;;;;;;0.10;0.10;;;;;;;17.97;63.15;98071.58;128688;1096;115548;-85
2021/07/02 05:11:13;;;;;;;0.20;0.20;;;;;;;18.00;63.04;98068.13;129506;1095;22545;-83
2021/07/02 05:13:40;;;;;;;0.20;0.20;;;;;;;18.04;62.66;98058.07;128692;1096;116348;-81
2021/07/02 05:16:08;;;;;;;0.20;0.20;;;;;;;18.06;62.71;98068.59;128744;1096;115405;-82
2021/07/02 05:18:34;;;;;;;0.20;0.20;;;;;;;18.12;63.10;98067.14;128703;1096;115955;-83
2021/07/02 05:21:00;;;;;;;0.20;0.20;;;;;;;18.23;63.23;98062.61;128696;1096;116322;-84
2021/07/02 05:23:26;;;;;;;0.23;0.23;;;;;;;18.26;62.90;98067.33;129531;1096;22572;-84
2021/07/02 05:25:52;;;;;;;0.20;0.20;;;;;;;18.31;62.28;98068.95;128709;1097;115451;-83
2021/07/02 05:28:18;;;;;;;0.20;0.20;;;;;;;18.31;62.00;98064.31;128724;1097;115793;-83
2021/07/02 05:30:44;;;;;;;0.15;0.15;;;;;;;18.36;62.25;98068.66;128704;1096;115780;-84
2021/07/02 05:33:10;;;;;;;0.20;0.20;;;;;;;18.45;61.59;98062.92;128702;1096;115614;-84
2021/07/02 05:35:36;;;;;;;0.20;0.20;;;;;;;18.52;61.58;98066.53;128664;1095;115093;-84
2021/07/02 05:38:03;;;;;;;0.30;0.30;;;;;;;18.58;61.33;98065.05;129575;1096;22548;-84
2021/07/02 05:40:29;;;;;;;0.20;0.20;;;;;;;18.69;61.16;98065.19;128781;1096;115119;-84
2021/07/02 05:42:55;;;;;;;0.20;0.20;;;;;;;18.72;60.92;98069.94;128677;1096;115337;-84
2021/07/02 05:45:21;;;;;;;0.20;0.20;;;;;;;18.80;60.37;98068.88;128705;1097;115379;-84
2021/07/02 05:47:50;;;;;;;0.20;0.20;;;;;;;18.85;60.51;98075.94;128760;1096;115395;-84
2021/07/02 05:50:19;;;;;;;0.20;0.20;;;;;;;18.93;60.21;98074.86;129558;1096;22544;-85
2021/07/02 05:52:47;;;;;;;0.30;0.30;;;;;;;18.97;60.44;98085.83;128679;1096;115294;-85
2021/07/02 05:55:13;;;;;;;0.20;0.20;;;;;;;19.09;60.50;98086.36;128464;1096;115378;-84
2021/07/02 05:57:40;;;;;;;0.20;0.20;;;;;;;19.22;60.15;98075.20;128484;1096;115909;-84
2021/07/02 06:00:10;;;;;;;0.20;0.20;;;;;;;19.35;59.84;98071.83;128421;1096;115674;-84
2021/07/02 06:02:36;;;;;;;0.20;0.20;;;;;;;19.46;59.73;98069.22;128655;1095;115821;-85
2021/07/02 06:05:04;;;;;;;0.20;0.20;;;;;;;19.59;59.69;98081.42;129455;1096;22584;-85
2021/07/02 06:07:42;;;;;;;0.20;0.20;;;;;;;19.71;59.08;98091.31;128597;1096;115501;-84
2021/07/02 06:10:09;;;;;;;0.20;0.20;;;;;;;19.76;58.54;98090.96;128618;1097;115788;-84
2021/07/02 06:12:35;;;;;;;0.20;0.20;;;;;;;19.78;58.29;98085.92;128740;1096;115197;-86
2021/07/02 06:15:02;;;;;;;0.30;0.30;;;;;;;19.79;58.18;98092.95;128990;1097;115690;-87
2021/07/02 06:17:28;;;;;;;0.30;0.30;;;;;;;19.77;58.16;98094.50;129802;1096;22608;-87
2021/07/02 06:19:54;;;;;;;0.20;0.20;;;;;;;19.71;58.08;98099.52;129624;1096;113377;-87
2021/07/02 06:22:20;;;;;;;0.30;0.30;;;;;;;19.70;58.08;98099.90;129000;1096;114776;-87
2021/07/02 06:24:46;;;;;;;0.20;0.20;;;;;;;19.68;57.98;98100.26;128933;1096;116141;-87
2021/07/02 06:27:13;;;;;;;0.40;0.40;;;;;;;19.66;58.09;98102.59;129016;1095;115052;-86
2021/07/02 06:29:39;;;;;;;0.20;0.20;;;;;;;19.58;58.15;98109.91;128954;1096;115589;-86
2021/07/02 06:32:06;;;;;;;0.20;0.20;;;;;;;19.50;58.01;98108.27;129781;1096;22697;-87
2021/07/02 06:34:32;;;;;;;0.30;0.30;;;;;;;19.45;58.13;98111.31;128912;1096;115307;-86
2021/07/02 06:36:58;;;;;;;0.15;0.15;;;;;;;19.41;58.02;98124.14;129018;1096;115657;-87
2021/07/02 06:39:25;;;;;;;0.20;0.20;;;;;;;19.35;58.22;98120.97;129008;1096;114854;-87
2021/07/02 06:41:51;;;;;;;0.23;0.23;;;;;;;19.30;58.45;98120.53;129033;1096;115541;-87
2021/07/02 06:44:17;;;;;;;0.40;0.35;;;;;;;19.25;58.45;98121.63;129174;1096;22587;-87
2021/07/02 06:46:43;;;;;;;0.30;0.30;;;;;;;19.20;58.85;98121.97;128876;1096;114711;-87
2021/07/02 06:49:09;;;;;;;0.10;0.10;;;;;;;19.19;58.54;98134.05;129044;1096;114944;-87
2021/07/02 06:51:37;;;;;;;0.20;0.20;;;;;;;19.20;58.70;98143.02;128951;1096;115349;-87
2021/07/02 06:54:03;;;;;;;0.30;0.30;;;;;;;19.19;58.28;98139.51;128944;1096;116418;-87
2021/07/02 06:56:31;;;;;;;0.20;0.20;;;;;;;19.08;58.50;98139.38;129127;1097;115377;-86
2021/07/02 06:58:58;;;;;;;0.20;0.20;;;;;;;19.02;58.53;98142.78;129756;1096;120045;-87
2021/07/02 07:01:25;;;;;;;0.20;0.20;;;;;;;18.99;58.63;98141.61;129005;1096;115425;-87
2021/07/02 07:03:52;;;;;;;0.30;0.30;;;;;;;19.07;59.30;98154.18;128994;1100;114308;-87
2021/07/02 07:06:18;;;;;;;0.20;0.20;;;;;;;19.09;59.77;98151.85;128984;1097;114980;-86
2021/07/02 07:08:45;;;;;;;0.20;0.20;;;;;;;19.13;59.40;98154.63;128973;1096;115386;-86
2021/07/02 07:11:11;;;;;;;0.30;0.30;;;;;;;19.21;59.34;98148.09;129717;1097;22558;-83
2021/07/02 07:13:38;;;;;;;0.30;0.30;;;;;;;19.31;58.82;98152.91;128707;1096;115099;-83
2021/07/02 07:16:05;;;;;;;0.20;0.20;;;;;;;19.40;57.88;98144.42;128674;1097;115157;-82
2021/07/02 07:18:31;;;;;;;0.20;0.20;;;;;;;19.44;58.33;98145.25;128711;1097;115931;-82
2021/07/02 07:20:57;;;;;;;0.30;0.30;;;;;;;19.50;58.21;98145.72;128688;1097;116249;-82
2021/07/02 07:23:23;;;;;;;0.33;0.33;;;;;;;19.55;57.96;98146.15;129539;1097;22560;-82
2021/07/02 07:25:49;;;;;;;0.20;0.20;;;;;;;19.68;57.67;98137.72;128676;1096;114728;-83
2021/07/02 07:28:16;;;;;;;0.30;0.30;;;;;;;19.78;57.77;98145.24;128716;1095;114893;-83
2021/07/02 07:30:42;;;;;;;0.40;0.40;;;;;;;19.88;57.32;98141.81;128704;1097;115685;-82
2021/07/02 07:33:08;;;;;;;0.40;0.40;;;;;;;19.99;57.27;98136.45;128730;1096;116132;-82
2021/07/02 07:35:43;;;;;;;0.30;0.30;;;;;;;20.07;57.09;98132.61;128690;1096;115803;-82
2021/07/02 07:38:09;;;;;;;0.20;0.20;;;;;;;20.15;57.03;98126.03;129537;1097;22525;-82
2021/07/02 07:40:35;;;;;;;0.20;0.20;;;;;;;20.24;56.85;98126.52;128734;1097;115312;-82
2021/07/02 07:43:01;;;;;;;0.30;0.30;;;;;;;20.30;56.95;98127.72;128728;1096;114630;-82
2021/07/02 07:45:28;;;;;;;0.30;0.30;;;;;;;20.37;56.81;98129.72;128686;1095;116049;-82
2021/07/02 07:47:54;;;;;;;0.20;0.20;;;;;;;20.41;56.49;98122.33;128716;1096;115992;-83
2021/07/02 07:50:26;;;;;;;0.20;0.20;;;;;;;20.49;56.51;98131.40;129532;1096;22570;-83
2021/07/02 07:52:58;;;;;;;0.20;0.20;;;;;;;20.58;56.22;98126.37;128790;1095;115261;-86
2021/07/02 07:55:26;;;;;;;0.30;0.30;;;;;;;20.64;55.94;98129.55;129125;1096;114820;-86
2021/07/02 07:57:52;;;;;;;0.30;0.30;;;;;;;20.74;55.56;98134.27;129108;1096;116262;-86
2021/07/02 08:00:19;;;;;;;0.20;0.20;;;;;;;20.83;55.27;98126.53;129112;1096;115227;-86
2021/07/02 08:02:46;;;;;;;0.20;0.20;;;;;;;20.93;54.85;98125.78;129132;1096;115799;-86
2021/07/02 08:05:14;;;;;;;0.20;0.20;;;;;;;21.07;54.74;98142.28;129991;1097;22540;-86
2021/07/02 08:07:42;;;;;;;0.20;0.20;;;;;;;21.17;54.35;98132.52;129145;1096;113813;-86
2021/07/02 08:10:11;;;;;;;0.20;0.20;;;;;;;21.23;54.15;98141.95;129159;1096;115154;-86
2021/07/02 08:12:39;;;;;;;0.20;0.20;;;;;;;21.34;53.91;98155.72;129114;1096;113949;-86
2021/07/02 08:15:07;;;;;;;0.30;0.30;;;;;;;21.42;53.51;98156.50;129101;1096;115533;-86
2021/07/02 08:17:36;;;;;;;0.20;0.20;;;;;;;21.48;52.84;98152.23;129097;1096;115663;-86
2021/07/02 08:20:09;;;;;;;0.30;0.30;;;;;;;21.61;52.74;98156.16;129924;1096;22524;-86
2021/07/02 08:22:35;;;;;;;0.20;0.20;;;;;;;21.69;52.69;98146.81;129076;1100;114686;-86
2021/07/02 08:25:02;;;;;;;0.30;0.30;;;;;;;21.76;52.24;98151.51;129068;1096;114968;-86
2021/07/02 08:27:28;;;;;;;0.20;0.20;;;;;;;21.79;52.08;98150.73;129116;1096;115853;-86
2021/07/02 08:29:54;;;;;;;0.28;0.28;;;;;;;21.74;51.84;98149.16;129158;1096;114725;-86
2021/07/02 08:32:20;;;;;;;0.30;0.30;;;;;;;21.75;51.87;98152.69;129921;1096;23043;-86
2021/07/02 08:34:46;;;;;;;0.20;0.20;;;;;;;21.84;51.59;98155.83;129127;1096;115179;-86
2021/07/02 08:37:13;;;;;;;0.30;0.30;;;;;;;21.88;51.12;98144.87;129051;1096;115330;-86
2021/07/02 08:39:39;;;;;;;0.20;0.20;;;;;;;21.93;51.13;98145.28;129027;1095;115964;-86
2021/07/02 08:42:06;;;;;;;0.30;0.30;;;;;;;22.09;50.74;98144.90;128999;1100;115066;-87
2021/07/02 08:44:33;;;;;;;0.40;0.40;;;;;;;22.23;50.75;98142.17;129055;1096;114329;-86
2021/07/02 08:47:00;;;;;;;0.28;0.28;;;;;;;22.40;50.51;98150.78;129898;1096;22628;-86
2021/07/02 08:49:31;;;;;;;0.30;0.30;;;;;;;22.59;50.23;98146.84;129149;1096;113977;-86
2021/07/02 08:51:58;;;;;;;0.35;0.35;;;;;;;22.78;49.71;98141.70;129095;1096;115093;-86
2021/07/02 08:54:24;;;;;;;0.30;0.30;;;;;;;22.87;49.69;98138.56;129052;1095;115339;-86
2021/07/02 08:56:56;;;;;;;0.30;0.30;;;;;;;22.95;48.77;98137.39;129029;1096;115345;-86
2021/07/02 08:59:28;;;;;;;0.28;0.28;;;;;;;22.99;48.55;98140.09;129850;1096;22699;-86
2021/07/02 09:01:55;;;;;;;0.30;0.30;;;;;;;23.06;48.43;98139.30;129852;1097;22572;-86
2021/07/02 09:04:29;;;;;;;0.28;0.28;;;;;;;23.10;48.32;98131.83;129083;1096;113678;-86
2021/07/02 09:07:16;;;;;;;0.30;0.30;;;;;;;23.09;48.05;98135.76;129077;1096;115156;-86
2021/07/02 09:09:59;;;;;;;0.23;0.23;;;;;;;23.03;47.88;98135.40;129090;1096;114996;-86
2021/07/02 09:12:30;;;;;;;0.25;0.25;;;;;;;22.99;47.16;98129.92;129078;1100;115562;-86
2021/07/02 09:15:25;;;;;;;0.33;0.33;;;;;;;22.91;47.75;98131.13;129019;1096;115268;-86
2021/07/02 09:17:57;;;;;;;0.30;0.30;;;;;;;22.88;47.93;98139.34;128793;1096;115398;-86
2021/07/02 09:20:29;;;;;;;0.40;0.40;;;;;;;22.85;47.58;98145.62;129891;1096;22644;-87
2021/07/02 09:23:01;;;;;;;0.30;0.30;;;;;;;22.82;47.31;98138.17;129945;1095;22568;-87
2021/07/02 09:25:31;;;;;;;0.30;0.30;;;;;;;22.81;47.38;98133.86;129113;1096;114643;-86
2021/07/02 09:28:05;;;;;;;0.20;0.20;;;;;;;22.86;47.02;98133.45;129124;1095;115319;-86
2021/07/02 09:30:52;;;;;;;0.30;0.30;;;;;;;22.91;46.67;98130.31;129120;1095;114179;-86
2021/07/02 09:33:23;;;;;;;0.30;0.30;;;;;;;22.92;46.33;98138.17;129077;1096;114886;-86
2021/07/02 09:36:00;;;;;;;0.30;0.30;;;;;;;22.93;46.02;98120.52;129065;1096;115383;-86
2021/07/02 09:38:40;;;;;;;0.38;0.38;;;;;;;22.96;46.04;98133.45;129857;1098;22654;-87
2021/07/02 09:41:08;;;;;;;0.30;0.30;;;;;;;23.15;46.05;98134.18;129959;1095;22526;-86
2021/07/02 09:43:38;;;;;;;0.20;0.20;;;;;;;23.27;46.01;98122.74;129082;1096;115877;-86
2021/07/02 09:46:07;;;;;;;0.30;0.30;;;;;;;23.56;45.36;98123.36;129012;1096;115160;-86
2021/07/02 09:48:44;;;;;;;0.40;0.40;;;;;;;23.77;45.12;98119.71;128928;1096;115099;-86
2021/07/02 09:51:13;;;;;;;0.33;0.33;;;;;;;23.95;44.81;98109.38;128945;1096;116306;-87
2021/07/02 09:53:40;;;;;;;0.28;0.28;;;;;;;24.04;44.77;98113.63;129029;1096;115607;-87
2021/07/02 09:56:10;;;;;;;0.30;0.30;;;;;;;24.18;44.62;98108.80;129864;1097;22632;-86
2021/07/02 09:58:38;;;;;;;0.40;0.40;;;;;;;24.23;43.68;98116.61;128940;1096;115539;-87
2021/07/02 10:01:10;;;;;;;0.37;0.37;;;;;;;24.14;43.84;98115.52;128941;1097;115637;-86
2021/07/02 10:03:59;;;;;;;;;;;;;;;24.03;43.69;98112.85;128945;1096;115373;-87
2021/07/02 10:06:26;;;;;;;0.35;0.35;;;;;;;23.97;43.86;98104.27;129066;1096;101383;-86
2021/07/02 10:08:54;;;;;;;0.30;0.30;;;;;;;23.90;44.04;98118.06;129000;1097;114829;-86
2021/07/02 10:11:20;;;;;;;0.40;0.40;;;;;;;23.93;43.84;98117.27;129749;1097;22702;-86
2021/07/02 10:13:51;;;;;;;0.30;0.30;;;;;;;23.98;43.94;98114.07;129042;1095;115232;-86
2021/07/02 10:16:19;;;;;;;0.35;0.35;;;;;;;24.02;43.66;98108.55;128977;1096;115727;-86
2021/07/02 10:18:49;;;;;;;0.30;0.30;;;;;;;23.94;43.89;98115.29;128980;1096;114432;-86
2021/07/02 10:21:18;;;;;;;0.33;0.33;;;;;;;23.89;43.98;98118.45;128960;1096;115267;-86
2021/07/02 10:23:46;;;;;;;0.30;0.30;;;;;;;24.15;43.48;98111.58;128988;1097;115572;-86
2021/07/02 10:26:16;;;;;;;0.30;0.30;;;;;;;24.35;43.50;98101.56;129805;1096;22555;-87
2021/07/02 10:28:43;;;;;;;0.38;0.38;;;;;;;24.43;43.06;98100.33;128936;1097;115364;-86
2021/07/02 10:31:10;;;;;;;0.30;0.30;;;;;;;24.44;43.07;98110.17;128979;1096;115680;-86
2021/07/02 10:33:48;;;;;;;0.30;0.30;;;;;;;24.47;43.03;98098.32;129059;1096;115284;-86
2021/07/02 10:36:15;;;;;;;0.30;0.30;;;;;;;24.69;42.76;98111.88;129061;1096;115504;-86
2021/07/02 10:38:45;;;;;;;0.40;0.40;;;;;;;24.82;42.20;98107.39;128973;1096;115302;-86
2021/07/02 10:41:15;;;;;;;0.40;0.40;;;;;;;24.88;42.15;98110.50;129871;1097;23390;-86
2021/07/02 10:44:06;;;;;;;0.50;0.50;;;;;;;24.92;41.67;98105.73;129059;1095;114618;-86
2021/07/02 10:46:48;;;;;;;0.30;0.30;;;;;;;24.88;41.13;98111.27;128873;1096;115199;-86
2021/07/02 10:49:16;;;;;;;0.40;0.40;;;;;;;25.02;41.32;98095.76;129033;1096;115205;-86
2021/07/02 10:52:00;;;;;;;0.48;0.48;;;;;;;25.27;41.41;98090.75;129046;1096;114893;-86
2021/07/02 10:54:28;;;;;;;0.35;0.35;;;;;;;25.54;40.99;98082.47;129023;1096;115009;-86
2021/07/02 10:56:59;;;;;;;0.30;0.30;;;;;;;25.86;40.62;98079.28;128936;1096;115816;-86
2021/07/02 10:59:37;;;;;;;0.30;0.30;;;;;;;26.01;40.10;98079.80;129921;1096;22627;-86
2021/07/02 11:02:07;;;;;;;0.40;0.40;;;;;;;26.05;39.83;98075.00;129891;1096;22569;-86
2021/07/02 11:04:41;;;;;;;0.40;0.40;;;;;;;26.04;39.95;98092.77;129034;1096;114118;-86
2021/07/02 11:07:13;;;;;;;0.40;0.40;;;;;;;26.09;39.58;98078.48;128972;1096;115498;-86
2021/07/02 11:09:49;;;;;;;0.35;0.35;;;;;;;26.29;39.35;98077.75;128985;1096;114260;-86
2021/07/02 11:12:25;;;;;;;0.40;0.40;;;;;;;26.55;38.78;98076.13;129015;1096;115092;-86
2021/07/02 11:14:51;;;;;;;0.50;0.50;;;;;;;26.84;38.18;98077.15;129017;1096;115388;-86
2021/07/02 11:17:20;;;;;;;0.40;0.40;;;;;;;27.19;37.72;98077.62;129869;1096;22679;-86
2021/07/02 11:19:47;;;;;;;0.40;0.40;;;;;;;27.52;37.46;98072.17;129005;1096;114688;-86
2021/07/02 11:22:35;;;;;;;0.30;0.30;;;;;;;27.67;37.20;98076.17;128993;1096;115134;-86